Newark, OH

8:16 AM EDT on April 25, 2015 (GMT -0400)
Up on Horns Hill | | Change Station
CLOSE
Current Station
Personal Weather Station
Location: Newark, OH
Elevation: 1030 ft
Nearby Weather Stations

Elev 1030 ft 40.13 °N, 82.40 °W | Updated 36 seconds ago

Overcast
Overcast
42.8 °F
Feels Like 43 °F
N
0.2
Wind Variable Wind from ENE
Gusts 2.5 mph

Today
High -- | Low -- °F
--% Chance of Precip.
Yesterday
High -- | Low -- °F
Precip. -- in
6:37 AM 8:18 PM
Waxing Crescent, 45% visible
Pressure 29.90 in
Visibility 10.0 miles
Clouds Mostly Cloudy 7000 ft
Overcast 8500 ft
Windchill 43 °F
Dew Point 26 °F
Humidity 51%
Rainfall 0.00 in
Snow Depth Not available.
UV 0 out of 12
Pollen 10.50 out of 12
Air Quality Not available.
Flu Activity Regional
METAR KVTA 251154Z AUTO 07011KT 10SM BKN070 OVC085 07/M04 A2989 RMK AO2 SLP123 T00671044 10089 20067 58004

More Conditions Fewer Conditions

Pressure 29.90 in
Visibility 10.0 miles
Clouds Mostly Cloudy 7000 ft
Overcast 8500 ft
Windchill 43 °F
Dew Point 26 °F
Humidity 51%
Rainfall 0.00 in
Snow Depth Not available.
UV 0 out of 12
Pollen 10.50 out of 12
Air Quality Not available.
Flu Activity Regional
METAR KVTA 251154Z AUTO 07011KT 10SM BKN070 OVC085 07/M04 A2989 RMK AO2 SLP123 T00671044 10089 20067 58004

More Conditions Fewer Conditions

10-Day Weather Forecast

Almanac

Astronomy

Apr. 25, 2015 Rise Set
Actual Time
Civil Twilight
Nautical Twilight
Astronomical Twilight
Moon
Length of Visible Light
Length of Day
Tomorrow will be .
, % of the Moon is Illuminated

Today's Extremes

State Highs State Lows

Community

WunderPhotos

Upload Photos

1,816,643 photos uploaded!

WunderBlogs® & News

Nearby

Air Quality

  Air Quality AQ Index Pollutant
Not available.

Snow Depth

Station Depth Elevation

Earthquake Activity

City Distance Mag. Time & Date
Minimum magnitude displayed is 2.5.

Coastal Water Temperatures

Place Temperature

Stations

Nearby Weather Stations

Station Location Temp. Windchill Dew Point Humidity Wind Precip. Elev Updated Type